Time;durP1;ratioP1;P1;durP2;ratioP2;P2;SDS_P1;SDS_P2;PMS_P1;PMS_P2;Temp;Humidity;BMP_temperature;BMP_pressure;BME280_temperature;BME280_humidity;BME280_pressure;Samples;Min_cycle;Max_cycle;Signal;HPM_P1;HPM_P2
2022/01/27 00:03:11;;;;;;;0.55;0.55;;;5.30;99.90;;;;;;5118871;28;20002;-86
2022/01/27 00:05:40;;;;;;;0.10;0.10;;;5.40;99.90;;;;;;5116416;28;20043;-85
2022/01/27 00:13:01;;;;;;;0.10;0.10;;;5.70;99.90;;;;;;5130989;28;20541;-85
2022/01/27 00:15:32;;;;;;;0.10;0.10;;;5.30;99.90;;;;;;5098543;28;20105;-88
2022/01/27 00:18:02;;;;;;;0.10;0.10;;;5.30;99.90;;;;;;5115022;28;20032;-85
2022/01/27 00:20:31;;;;;;;0.10;0.10;;;5.90;99.90;;;;;;5099597;28;20043;-88
2022/01/27 00:22:58;;;;;;;0.10;0.10;;;5.30;99.90;;;;;;5097702;28;20503;-85
2022/01/27 00:25:24;;;;;;;0.88;0.32;;;5.30;99.90;;;;;;5097144;28;20039;-85
2022/01/27 00:27:52;;;;;;;0.10;0.10;;;5.30;99.90;;;;;;5114165;28;20077;-85
2022/01/27 00:30:18;;;;;;;0.10;0.10;;;5.30;99.90;;;;;;5113929;28;20488;-85
2022/01/27 00:32:45;;;;;;;0.10;0.10;;;5.30;99.90;;;;;;5131077;28;20040;-85
2022/01/27 00:35:12;;;;;;;0.10;0.10;;;5.30;99.90;;;;;;5097271;28;20086;-88
2022/01/27 00:37:39;;;;;;;0.10;0.10;;;5.30;99.90;;;;;;5114402;28;20044;-88
2022/01/27 00:40:09;;;;;;;0.10;0.10;;;5.50;99.90;;;;;;5113390;28;20096;-85
2022/01/27 00:42:36;;;;;;;0.20;0.20;;;5.30;99.90;;;;;;5114592;28;20059;-88
2022/01/27 00:45:04;;;;;;;0.10;0.10;;;5.50;99.90;;;;;;5114954;28;20043;-87
2022/01/27 00:47:31;;;;;;;0.10;0.10;;;5.30;99.90;;;;;;5131445;28;20040;-85
2022/01/27 00:49:58;;;;;;;0.10;0.10;;;5.20;99.90;;;;;;5113674;28;20043;-88
2022/01/27 00:52:33;;;;;;;0.10;0.10;;;5.70;99.90;;;;;;5114027;28;20540;-88
2022/01/27 00:55:00;;;;;;;0.03;0.03;;;6.00;99.90;;;;;;5099753;28;20404;-85
2022/01/27 00:57:40;;;;;;;0.10;0.10;;;5.20;99.90;;;;;;5113544;28;20039;-88
2022/01/27 01:00:09;;;;;;;0.08;0.08;;;5.20;99.90;;;;;;5100421;28;20495;-85
2022/01/27 01:07:41;;;;;;;0.10;0.10;;;5.20;99.90;;;;;;5132053;28;20479;-88
2022/01/27 01:15:41;;;;;;;0.00;0.00;;;5.20;99.90;;;;;;5147678;28;20672;-85
2022/01/27 01:31:32;;;;;;;0.10;0.10;;;5.10;99.90;;;;;;5133302;28;20051;-88
2022/01/27 01:34:13;;;;;;;0.10;0.10;;;5.30;99.90;;;;;;5098335;28;20031;-86
2022/01/27 01:37:18;;;;;;;0.10;0.10;;;5.20;99.90;;;;;;5119827;28;20038;-88
2022/01/27 01:39:36;;;;;;;0.10;0.10;;;5.10;99.90;;;;;;5135898;28;20146;-88
2022/01/27 01:42:07;;;;;;;0.10;0.10;;;5.10;99.90;;;;;;5100847;28;20055;-87
2022/01/27 01:44:34;;;;;;;0.10;0.10;;;5.10;99.90;;;;;;5134109;28;20062;-87
2022/01/27 01:47:01;;;;;;;0.10;0.10;;;5.30;99.90;;;;;;5134572;28;20047;-88
2022/01/27 01:49:28;;;;;;;0.10;0.10;;;5.10;99.90;;;;;;5117136;28;20044;-85
2022/01/27 01:51:57;;;;;;;0.10;0.10;;;5.30;99.90;;;;;;5134442;28;20051;-88
2022/01/27 01:54:24;;;;;;;3.20;0.43;;;5.60;99.90;;;;;;5134047;28;20036;-88
2022/01/27 01:56:52;;;;;;;0.20;0.20;;;5.70;99.90;;;;;;5134053;28;20032;-88
2022/01/27 01:59:19;;;;;;;0.10;0.10;;;5.00;99.90;;;;;;5133928;28;20034;-88
2022/01/27 02:01:46;;;;;;;0.10;0.10;;;5.00;99.90;;;;;;5116622;28;20477;-88
2022/01/27 02:04:14;;;;;;;0.20;0.20;;;5.00;99.90;;;;;;5134154;28;20048;-85
2022/01/27 02:06:48;;;;;;;0.80;0.20;;;5.00;99.90;;;;;;5133763;28;20044;-85
2022/01/27 02:09:50;;;;;;;1.40;0.40;;;5.00;99.90;;;;;;5133753;28;20480;-85
2022/01/27 02:17:59;;;;;;;0.10;0.10;;;5.00;99.90;;;;;;5135914;28;20122;-85
2022/01/27 02:20:27;;;;;;;0.10;0.10;;;4.90;99.90;;;;;;5105573;28;20089;-88
2022/01/27 02:22:54;;;;;;;0.10;0.10;;;5.00;99.90;;;;;;5117052;28;20044;-85
2022/01/27 02:25:21;;;;;;;0.10;0.10;;;5.40;99.90;;;;;;5116610;28;20385;-87
2022/01/27 02:27:55;;;;;;;0.10;0.10;;;5.00;99.90;;;;;;5116553;28;20039;-85
2022/01/27 02:30:23;;;;;;;0.10;0.10;;;5.00;99.90;;;;;;5132819;28;20047;-88
2022/01/27 02:32:52;;;;;;;0.10;0.10;;;4.90;99.90;;;;;;5116236;28;20040;-86
2022/01/27 02:35:25;;;;;;;0.10;0.10;;;4.90;99.90;;;;;;5116433;28;20036;-87
2022/01/27 02:37:53;;;;;;;0.10;0.10;;;5.00;99.90;;;;;;5134013;28;20032;-88
2022/01/27 02:40:43;;;;;;;0.10;0.10;;;5.90;99.90;;;;;;5132809;28;20057;-85
2022/01/27 02:43:10;;;;;;;0.10;0.10;;;5.00;99.90;;;;;;5132610;28;20130;-87
2022/01/27 02:45:45;;;;;;;0.10;0.10;;;5.00;99.90;;;;;;5099192;28;20535;-88
2022/01/27 02:48:12;;;;;;;0.10;0.10;;;4.90;99.90;;;;;;5133121;28;20729;-85
2022/01/27 02:50:39;;;;;;;0.10;0.10;;;5.30;99.90;;;;;;5099733;28;20044;-88
2022/01/27 02:53:09;;;;;;;0.20;0.20;;;5.10;99.90;;;;;;5099511;28;20410;-87
2022/01/27 02:55:37;;;;;;;0.10;0.10;;;5.60;99.90;;;;;;5132997;28;20546;-87
2022/01/27 02:58:04;;;;;;;0.10;0.10;;;5.90;99.90;;;;;;5132496;28;20031;-85
2022/01/27 03:00:32;;;;;;;0.00;0.00;;;5.00;99.90;;;;;;5114868;28;20510;-85
2022/01/27 03:02:59;;;;;;;0.10;0.10;;;5.80;99.90;;;;;;5133816;28;20092;-88
2022/01/27 03:05:26;;;;;;;0.10;0.10;;;5.10;99.90;;;;;;5099436;28;20480;-85
2022/01/27 03:07:53;;;;;;;0.10;0.10;;;5.40;99.90;;;;;;5115571;28;20051;-85
2022/01/27 03:10:20;;;;;;;0.10;0.10;;;5.10;99.90;;;;;;5099097;28;20126;-85
2022/01/27 03:12:49;;;;;;;0.20;0.20;;;5.10;99.90;;;;;;5148853;28;20039;-87
2022/01/27 03:15:16;;;;;;;0.00;0.00;;;5.10;99.90;;;;;;5132197;28;20417;-85
2022/01/27 03:17:43;;;;;;;0.10;0.10;;;5.10;99.90;;;;;;5115060;28;20100;-87
2022/01/27 03:20:10;;;;;;;0.10;0.10;;;5.10;99.90;;;;;;5116004;28;20039;-88
2022/01/27 03:22:37;;;;;;;0.50;0.50;;;5.10;99.90;;;;;;5098552;28;20050;-85
2022/01/27 03:25:04;;;;;;;0.10;0.10;;;5.10;99.90;;;;;;5115688;28;20039;-88
2022/01/27 03:27:31;;;;;;;0.10;0.10;;;5.10;99.90;;;;;;5098814;28;20051;-88
2022/01/27 03:29:57;;;;;;;0.10;0.10;;;4.50;99.90;;;;;;5131830;28;20039;-85
2022/01/27 03:32:26;;;;;;;0.90;0.52;;;5.10;99.90;;;;;;5098275;28;20035;-85
2022/01/27 03:34:53;;;;;;;0.10;0.10;;;5.10;99.90;;;;;;5131868;28;20039;-85
2022/01/27 03:37:20;;;;;;;0.10;0.10;;;5.10;99.90;;;;;;5115147;28;20128;-85
2022/01/27 03:39:47;;;;;;;0.10;0.10;;;5.10;99.90;;;;;;5114948;28;20046;-85
2022/01/27 03:42:14;;;;;;;0.10;0.10;;;5.00;99.90;;;;;;5131276;28;20047;-85
2022/01/27 03:44:40;;;;;;;0.10;0.10;;;5.50;99.90;;;;;;5131755;28;20488;-88
2022/01/27 03:47:07;;;;;;;0.10;0.10;;;5.10;99.90;;;;;;5114825;28;20470;-86
2022/01/27 03:49:34;;;;;;;0.10;0.10;;;5.10;99.90;;;;;;5131391;28;20082;-85
2022/01/27 03:52:01;;;;;;;0.10;0.10;;;5.10;99.90;;;;;;5098170;28;20054;-85
2022/01/27 03:54:30;;;;;;;0.10;0.10;;;5.10;99.90;;;;;;5098320;28;20039;-88
2022/01/27 03:56:58;;;;;;;0.10;0.10;;;5.20;99.90;;;;;;5115182;28;20039;-85
2022/01/27 03:59:26;;;;;;;0.10;0.10;;;5.50;99.90;;;;;;5147412;28;20047;-87
2022/01/27 04:01:54;;;;;;;0.10;0.10;;;5.00;99.90;;;;;;5114336;28;20045;-85
2022/01/27 04:04:21;;;;;;;0.10;0.10;;;5.10;99.90;;;;;;5098117;28;20096;-85
2022/01/27 04:06:51;;;;;;;0.20;0.20;;;5.10;99.90;;;;;;5114251;28;20043;-87
2022/01/27 04:09:18;;;;;;;0.05;0.05;;;5.10;99.90;;;;;;5148734;28;20043;-86
2022/01/27 04:11:47;;;;;;;0.10;0.10;;;5.10;99.90;;;;;;5114294;28;20069;-88
2022/01/27 04:14:13;;;;;;;0.10;0.10;;;5.90;99.90;;;;;;5131336;28;20047;-88
2022/01/27 04:16:41;;;;;;;0.10;0.10;;;5.10;99.90;;;;;;5131040;28;20035;-88
2022/01/27 04:19:08;;;;;;;0.38;0.38;;;5.10;99.90;;;;;;5114490;28;20043;-86
2022/01/27 04:21:34;;;;;;;0.32;0.32;;;5.80;99.90;;;;;;5114260;28;20108;-88
2022/01/27 04:24:01;;;;;;;0.00;0.00;;;6.00;99.90;;;;;;5097834;28;20039;-87
2022/01/27 04:26:57;;;;;;;0.10;0.10;;;5.10;99.90;;;;;;5097833;28;20127;-85
2022/01/27 04:29:17;;;;;;;0.10;0.10;;;5.10;99.90;;;;;;5119800;28;20104;-85
2022/01/27 04:31:45;;;;;;;0.10;0.10;;;5.20;99.90;;;;;;5114752;28;20082;-88
2022/01/27 04:34:12;;;;;;;0.20;0.20;;;5.20;99.90;;;;;;5098312;28;20036;-87
2022/01/27 04:36:41;;;;;;;0.10;0.10;;;5.10;99.90;;;;;;5097431;28;20031;-85
2022/01/27 04:44:22;;;;;;;0.10;0.10;;;5.20;99.90;;;;;;5131457;28;20250;-85
2022/01/27 04:46:59;;;;;;;0.10;0.10;;;5.20;99.90;;;;;;5130784;28;20035;-85
2022/01/27 04:49:26;;;;;;;0.10;0.10;;;5.20;99.90;;;;;;5100248;28;20510;-86
2022/01/27 04:51:53;;;;;;;0.10;0.10;;;5.20;99.90;;;;;;5113876;28;20047;-88
2022/01/27 04:57:19;;;;;;;0.10;0.10;;;5.20;99.90;;;;;;5124922;28;20560;-85
2022/01/27 04:59:46;;;;;;;0.20;0.20;;;5.20;99.90;;;;;;5113870;28;20118;-85
2022/01/27 05:02:25;;;;;;;0.05;0.05;;;5.20;99.90;;;;;;5097094;28;20036;-88
2022/01/27 05:04:51;;;;;;;0.10;0.10;;;5.20;99.90;;;;;;5100398;28;20047;-85
2022/01/27 05:07:18;;;;;;;0.10;0.10;;;5.20;99.90;;;;;;5097184;28;20415;-85
2022/01/27 05:09:56;;;;;;;0.15;0.15;;;5.20;99.90;;;;;;5098096;28;20043;-85
2022/01/27 05:13:09;;;;;;;0.10;0.10;;;5.10;99.90;;;;;;5121327;28;20044;-88
2022/01/27 05:15:13;;;;;;;0.10;0.10;;;5.10;99.90;;;;;;5132860;28;20123;-88
2022/01/27 05:17:40;;;;;;;0.10;0.10;;;5.20;99.90;;;;;;5134498;28;20122;-87
2022/01/27 05:20:07;;;;;;;0.10;0.10;;;5.10;99.90;;;;;;5101824;28;20031;-87
2022/01/27 05:22:34;;;;;;;0.20;0.20;;;5.10;99.90;;;;;;5117724;28;20044;-87
2022/01/27 05:25:01;;;;;;;0.10;0.10;;;5.10;99.90;;;;;;5134103;28;20705;-85
2022/01/27 05:27:27;;;;;;;0.10;0.10;;;5.10;99.90;;;;;;5135062;28;20134;-85
2022/01/27 05:29:57;;;;;;;0.10;0.10;;;5.50;99.90;;;;;;5118305;28;20043;-85
2022/01/27 05:32:24;;;;;;;0.10;0.10;;;5.20;99.90;;;;;;5134391;28;20039;-85
2022/01/27 05:34:50;;;;;;;0.98;0.40;;;5.30;99.90;;;;;;5100477;28;20123;-85
2022/01/27 05:37:17;;;;;;;0.20;0.20;;;5.00;99.90;;;;;;5101139;28;20113;-88
2022/01/27 05:39:44;;;;;;;0.20;0.20;;;5.00;99.90;;;;;;5117347;28;20404;-85
2022/01/27 05:42:10;;;;;;;0.25;0.25;;;5.10;99.90;;;;;;5100906;28;20063;-85
2022/01/27 05:44:37;;;;;;;0.10;0.10;;;5.00;99.90;;;;;;5117046;28;20055;-87
2022/01/27 05:47:04;;;;;;;0.10;0.10;;;5.20;99.90;;;;;;5117176;28;20561;-85
2022/01/27 05:49:31;;;;;;;0.10;0.10;;;5.00;99.90;;;;;;5100501;28;20099;-85
2022/01/27 05:51:58;;;;;;;0.08;0.08;;;5.00;99.90;;;;;;5100381;28;20083;-85
2022/01/27 05:54:24;;;;;;;0.25;0.22;;;5.00;99.90;;;;;;5100575;28;20071;-85
2022/01/27 05:56:51;;;;;;;0.10;0.10;;;5.10;99.90;;;;;;5100365;28;20460;-87
2022/01/27 05:59:18;;;;;;;0.20;0.20;;;5.00;99.90;;;;;;5117576;28;20392;-85
2022/01/27 06:01:45;;;;;;;0.10;0.10;;;5.10;99.90;;;;;;5100211;28;20036;-85
2022/01/27 06:04:11;;;;;;;0.10;0.10;;;5.00;99.90;;;;;;5116910;28;20073;-85
2022/01/27 06:06:38;;;;;;;0.10;0.10;;;5.10;99.90;;;;;;5100955;28;20044;-85
2022/01/27 06:09:05;;;;;;;0.10;0.10;;;5.20;99.90;;;;;;5099241;28;20039;-85
2022/01/27 06:11:31;;;;;;;0.10;0.10;;;5.00;99.90;;;;;;5119647;28;20119;-85
2022/01/27 06:13:58;;;;;;;0.13;0.13;;;5.00;99.90;;;;;;5116508;28;20040;-88
2022/01/27 06:16:25;;;;;;;0.10;0.10;;;5.30;99.90;;;;;;5100296;28;20044;-87
2022/01/27 06:18:52;;;;;;;0.10;0.10;;;5.10;99.90;;;;;;5133387;28;20062;-87
2022/01/27 06:21:18;;;;;;;0.10;0.10;;;5.10;99.90;;;;;;5099176;28;20088;-88
2022/01/27 06:23:45;;;;;;;0.10;0.10;;;5.10;99.90;;;;;;5100094;28;20039;-87
2022/01/27 06:26:12;;;;;;;0.08;0.08;;;5.10;99.90;;;;;;5116605;28;20069;-87
2022/01/27 06:28:39;;;;;;;0.10;0.10;;;5.30;99.90;;;;;;5116475;28;20096;-87
2022/01/27 06:31:05;;;;;;;0.10;0.10;;;5.10;99.90;;;;;;5115781;28;20549;-85
2022/01/27 06:33:32;;;;;;;0.15;0.15;;;5.10;99.90;;;;;;5100053;28;20042;-85
2022/01/27 06:35:59;;;;;;;0.40;0.40;;;4.90;99.90;;;;;;5098917;28;20043;-85
2022/01/27 06:38:26;;;;;;;0.10;0.10;;;5.50;99.90;;;;;;5099351;28;20039;-85
2022/01/27 06:40:52;;;;;;;0.10;0.10;;;5.30;99.90;;;;;;5115769;28;20051;-84
2022/01/27 06:43:19;;;;;;;0.10;0.10;;;5.20;99.90;;;;;;5099736;28;20044;-85
2022/01/27 06:45:46;;;;;;;0.10;0.10;;;5.20;99.90;;;;;;5116607;28;20484;-88
2022/01/27 06:48:12;;;;;;;0.10;0.10;;;5.20;99.90;;;;;;5099494;28;20503;-88
2022/01/27 06:50:39;;;;;;;0.10;0.10;;;5.30;99.90;;;;;;5116179;28;20484;-85
2022/01/27 06:53:06;;;;;;;0.10;0.10;;;5.30;99.90;;;;;;5132170;28;20526;-85
2022/01/27 06:55:33;;;;;;;0.10;0.10;;;5.40;99.90;;;;;;5150029;28;20048;-88
2022/01/27 06:58:00;;;;;;;0.10;0.10;;;5.30;99.90;;;;;;5132726;28;20036;-88
2022/01/27 07:00:26;;;;;;;0.10;0.10;;;5.30;99.90;;;;;;5132238;28;20043;-85
2022/01/27 07:02:53;;;;;;;0.40;0.40;;;5.70;99.90;;;;;;5115508;28;20126;-85
2022/01/27 07:05:20;;;;;;;0.10;0.10;;;5.90;99.90;;;;;;5116130;28;20037;-85
2022/01/27 07:07:47;;;;;;;0.10;0.10;;;5.40;99.90;;;;;;5132610;28;20470;-88
2022/01/27 07:10:13;;;;;;;0.10;0.10;;;5.50;99.90;;;;;;5115680;28;20412;-85
2022/01/27 07:12:41;;;;;;;0.10;0.10;;;5.50;99.90;;;;;;5098873;28;20044;-85
2022/01/27 07:15:09;;;;;;;0.10;0.10;;;5.50;99.90;;;;;;5098485;28;20047;-84
2022/01/27 07:17:36;;;;;;;0.35;0.35;;;5.60;99.90;;;;;;5115932;28;20851;-87
2022/01/27 07:20:03;;;;;;;0.10;0.10;;;5.60;99.90;;;;;;5098461;28;20046;-85
2022/01/27 07:22:34;;;;;;;0.17;0.17;;;5.50;99.90;;;;;;5115449;28;20043;-87
2022/01/27 07:25:03;;;;;;;0.10;0.10;;;5.70;99.90;;;;;;5115608;28;20039;-88
2022/01/27 07:27:33;;;;;;;0.10;0.10;;;5.60;99.90;;;;;;5131917;28;20040;-85
2022/01/27 07:30:01;;;;;;;0.10;0.10;;;5.60;99.90;;;;;;5114108;28;20515;-85
2022/01/27 07:32:27;;;;;;;0.28;0.20;;;5.70;99.90;;;;;;5121443;28;20075;-85
2022/01/27 07:34:54;;;;;;;0.10;0.10;;;5.70;99.90;;;;;;5111507;28;20040;-87
2022/01/27 07:37:21;;;;;;;0.10;0.10;;;5.70;99.90;;;;;;5110868;28;20054;-87
2022/01/27 07:39:48;;;;;;;0.10;0.10;;;5.80;99.90;;;;;;5094650;28;20036;-88
2022/01/27 07:42:14;;;;;;;0.08;0.08;;;5.70;99.90;;;;;;5094007;28;20150;-88
2022/01/27 07:44:41;;;;;;;0.10;0.10;;;5.70;99.90;;;;;;5078249;28;20044;-87
2022/01/27 07:47:08;;;;;;;0.10;0.10;;;5.80;99.90;;;;;;5093943;28;20040;-84
2022/01/27 07:49:36;;;;;;;0.10;0.10;;;5.80;99.90;;;;;;5077818;28;20058;-87
2022/01/27 07:52:03;;;;;;;0.10;0.10;;;5.80;99.90;;;;;;5077472;28;20413;-85
2022/01/27 07:54:30;;;;;;;0.10;0.10;;;5.80;99.90;;;;;;5103717;28;20028;-85
2022/01/27 07:56:56;;;;;;;0.10;0.10;;;5.80;99.90;;;;;;5097754;28;20407;-84
2022/01/27 07:59:23;;;;;;;0.00;0.00;;;5.90;99.90;;;;;;5110770;28;20043;-88
2022/01/27 08:01:50;;;;;;;0.10;0.10;;;5.90;99.90;;;;;;5087856;28;20039;-85
2022/01/27 08:04:16;;;;;;;0.10;0.10;;;5.90;99.90;;;;;;5103357;28;20424;-84
2022/01/27 08:06:43;;;;;;;0.00;0.00;;;6.00;99.90;;;;;;5091872;28;20036;-85
2022/01/27 08:09:10;;;;;;;0.10;0.10;;;5.90;99.90;;;;;;5093131;28;20032;-88
2022/01/27 08:11:37;;;;;;;0.00;0.00;;;5.90;99.90;;;;;;5104388;28;20128;-84
2022/01/27 08:14:03;;;;;;;0.10;0.10;;;6.00;99.90;;;;;;5096970;28;20088;-85
2022/01/27 08:16:30;;;;;;;2.50;0.45;;;6.10;99.90;;;;;;5092390;28;20044;-85
2022/01/27 08:18:57;;;;;;;0.00;0.00;;;6.10;99.90;;;;;;5077922;28;20032;-85
2022/01/27 08:21:24;;;;;;;0.08;0.08;;;6.10;99.90;;;;;;5093576;28;20122;-88
2022/01/27 08:23:51;;;;;;;0.10;0.10;;;6.20;99.90;;;;;;5104237;28;20036;-88
2022/01/27 08:26:30;;;;;;;0.00;0.00;;;6.20;99.90;;;;;;5110284;28;20040;-84
2022/01/27 08:29:08;;;;;;;0.00;0.00;;;6.20;99.90;;;;;;5083133;28;20177;-88
2022/01/27 08:31:53;;;;;;;0.00;0.00;;;6.30;99.90;;;;;;5111179;28;20088;-85
2022/01/27 08:34:38;;;;;;;0.10;0.10;;;6.30;99.90;;;;;;5113243;28;20035;-89
2022/01/27 08:37:07;;;;;;;0.10;0.10;;;6.40;99.90;;;;;;5114745;28;20031;-86
2022/01/27 08:39:35;;;;;;;0.10;0.10;;;6.40;99.90;;;;;;5128520;28;20522;-90
2022/01/27 08:42:03;;;;;;;0.10;0.10;;;6.40;99.90;;;;;;5140387;28;20071;-86
2022/01/27 08:44:30;;;;;;;0.10;0.10;;;6.50;99.90;;;;;;5115847;28;20046;-86
2022/01/27 08:46:56;;;;;;;0.10;0.10;;;6.50;99.90;;;;;;5106240;28;20040;-85
2022/01/27 08:49:26;;;;;;;0.10;0.10;;;6.50;99.90;;;;;;5130455;28;20055;-85
2022/01/27 08:51:54;;;;;;;0.10;0.10;;;6.50;99.90;;;;;;5110457;28;20048;-85
2022/01/27 08:54:21;;;;;;;0.10;0.10;;;6.60;99.90;;;;;;5095330;28;20036;-90
2022/01/27 08:56:48;;;;;;;0.10;0.10;;;6.60;99.90;;;;;;5097583;28;20039;-85
2022/01/27 08:59:16;;;;;;;0.10;0.10;;;6.70;99.90;;;;;;5110006;28;20071;-85
2022/01/27 09:01:44;;;;;;;0.13;0.13;;;6.70;99.90;;;;;;5112473;28;20076;-91
2022/01/27 09:04:11;;;;;;;0.10;0.10;;;6.70;99.90;;;;;;5109944;28;20110;-84
2022/01/27 09:06:38;;;;;;;0.05;0.05;;;6.70;99.90;;;;;;5077555;28;20043;-84
2022/01/27 09:09:05;;;;;;;0.50;0.50;;;6.70;99.90;;;;;;5098829;28;20465;-87
2022/01/27 09:11:35;;;;;;;0.10;0.10;;;6.70;99.90;;;;;;5130658;28;20126;-85
2022/01/27 09:14:09;;;;;;;0.10;0.10;;;6.80;99.90;;;;;;5129991;28;20039;-90
2022/01/27 09:16:39;;;;;;;0.10;0.10;;;6.80;99.90;;;;;;5107482;28;20123;-85
2022/01/27 09:19:08;;;;;;;0.10;0.10;;;6.80;99.90;;;;;;5127574;28;20039;-89
2022/01/27 09:21:41;;;;;;;0.10;0.10;;;6.80;99.90;;;;;;5131116;28;20047;-85
2022/01/27 09:24:16;;;;;;;0.10;0.10;;;6.90;99.90;;;;;;5093328;28;20040;-85
2022/01/27 09:29:14;;;;;;;0.10;0.10;;;6.90;99.90;;;;;;5144909;28;19915;-86
2022/01/27 09:31:41;;;;;;;0.10;0.10;;;7.00;99.90;;;;;;5113015;28;20043;-91
2022/01/27 09:34:08;;;;;;;0.00;0.00;;;7.10;99.90;;;;;;5112508;28;20035;-86
2022/01/27 09:36:34;;;;;;;0.10;0.10;;;7.10;99.90;;;;;;5121671;28;20492;-92
2022/01/27 09:39:04;;;;;;;0.10;0.10;;;7.10;99.90;;;;;;5093310;28;20406;-91
2022/01/27 09:41:37;;;;;;;0.10;0.10;;;7.00;99.90;;;;;;5100391;28;20123;-86
2022/01/27 09:44:08;;;;;;;0.00;0.00;;;7.20;99.90;;;;;;5125897;28;20408;-86
2022/01/27 09:46:36;;;;;;;0.10;0.10;;;7.20;99.90;;;;;;5114616;28;20775;-92
2022/01/27 09:49:14;;;;;;;0.10;0.10;;;7.30;99.90;;;;;;5110082;28;20127;-85
2022/01/27 09:51:45;;;;;;;0.10;0.10;;;7.20;99.90;;;;;;5125571;28;20771;-87
2022/01/27 09:54:16;;;;;;;0.00;0.00;;;7.20;99.90;;;;;;5112845;28;20067;-87
2022/01/27 09:56:43;;;;;;;0.10;0.10;;;7.20;99.90;;;;;;5132871;28;20039;-87
2022/01/27 09:59:10;;;;;;;0.08;0.08;;;7.20;99.90;;;;;;5133841;28;20031;-91
2022/01/27 10:01:37;;;;;;;0.00;0.00;;;7.20;99.90;;;;;;5117079;28;20047;-86
2022/01/27 10:04:07;;;;;;;0.10;0.10;;;7.20;99.90;;;;;;5100941;28;20127;-90
2022/01/27 10:06:35;;;;;;;0.03;0.03;;;7.30;99.90;;;;;;5096659;28;20040;-91
2022/01/27 10:09:20;;;;;;;0.05;0.05;;;7.30;99.90;;;;;;5110076;28;20040;-91
2022/01/27 10:11:49;;;;;;;0.00;0.00;;;7.30;99.90;;;;;;5113258;28;20075;-91
2022/01/27 10:14:22;;;;;;;0.10;0.10;;;7.40;99.90;;;;;;5113715;28;20039;-85
2022/01/27 10:16:52;;;;;;;0.10;0.10;;;7.40;99.90;;;;;;5130728;28;20032;-85
2022/01/27 10:19:20;;;;;;;2.08;0.90;;;7.50;99.90;;;;;;5112921;28;20031;-91
2022/01/27 10:21:47;;;;;;;0.10;0.10;;;7.50;99.90;;;;;;5150707;28;20510;-91
2022/01/27 10:24:26;;;;;;;0.10;0.10;;;7.60;99.90;;;;;;5112215;28;20131;-85
2022/01/27 10:27:29;;;;;;;0.10;0.10;;;7.60;99.90;;;;;;5113210;28;20078;-91
2022/01/27 10:32:37;;;;;;;0.10;0.10;;;7.70;99.90;;;;;;5129185;28;20048;-85
2022/01/27 10:35:05;;;;;;;0.05;0.05;;;7.70;99.90;;;;;;5129126;28;20036;-85
2022/01/27 10:37:51;;;;;;;0.00;0.00;;;7.70;99.90;;;;;;5111569;28;20104;-86
2022/01/27 10:40:28;;;;;;;0.03;0.03;;;7.70;99.90;;;;;;5116211;28;20047;-91
2022/01/27 10:43:23;;;;;;;0.10;0.10;;;7.80;99.90;;;;;;5116924;28;20109;-91
2022/01/27 10:46:19;;;;;;;0.03;0.03;;;7.90;99.90;;;;;;5131819;28;20050;-91
2022/01/27 10:48:54;;;;;;;0.00;0.00;;;7.80;99.90;;;;;;5149201;28;20136;-85
2022/01/27 10:51:45;;;;;;;0.10;0.10;;;7.80;99.90;;;;;;5131961;28;20886;-91
2022/01/27 10:54:23;;;;;;;0.00;0.00;;;7.80;99.90;;;;;;5135040;28;20050;-92
2022/01/27 10:56:50;;;;;;;0.00;0.00;;;7.70;99.90;;;;;;5102940;28;20054;-91
2022/01/27 10:59:19;;;;;;;0.13;0.13;;;7.70;99.90;;;;;;5116035;28;20047;-92
2022/01/27 11:01:47;;;;;;;0.10;0.10;;;7.80;99.90;;;;;;5131848;28;20512;-85
2022/01/27 11:04:15;;;;;;;0.08;0.08;;;7.30;99.90;;;;;;5132068;28;20496;-86
2022/01/27 11:07:00;;;;;;;0.10;0.10;;;7.80;99.90;;;;;;5115790;28;20039;-90
2022/01/27 11:09:29;;;;;;;0.03;0.03;;;7.80;99.90;;;;;;5131917;28;20110;-86
2022/01/27 11:11:56;;;;;;;0.00;0.00;;;7.90;99.90;;;;;;5115916;28;20043;-91
2022/01/27 11:14:25;;;;;;;0.00;0.00;;;7.90;99.90;;;;;;5117054;28;20035;-85
2022/01/27 11:16:56;;;;;;;0.00;0.00;;;8.00;99.90;;;;;;5132232;28;20038;-85
2022/01/27 11:19:54;;;;;;;0.00;0.00;;;8.10;99.90;;;;;;5115224;28;20036;-85
2022/01/27 11:27:38;;;;;;;0.00;0.00;;;8.20;99.90;;;;;;5127899;28;20046;-90
2022/01/27 11:30:11;;;;;;;0.00;0.00;;;8.20;99.90;;;;;;5085228;28;20036;-89
2022/01/27 11:32:50;;;;;;;0.10;0.10;;;8.20;99.90;;;;;;5123538;28;20047;-85
2022/01/27 11:35:22;;;;;;;0.00;0.00;;;8.30;99.90;;;;;;5118236;28;20106;-89
2022/01/27 11:37:51;;;;;;;0.00;0.00;;;8.30;99.90;;;;;;5116830;28;20120;-85
2022/01/27 11:40:20;;;;;;;0.00;0.00;;;8.40;99.90;;;;;;5113529;28;20063;-89
2022/01/27 11:42:56;;;;;;;0.00;0.00;;;8.40;99.90;;;;;;5111433;28;20060;-85
2022/01/27 11:45:28;;;;;;;0.00;0.00;;;8.50;99.90;;;;;;5113648;28;20035;-85
2022/01/27 11:48:01;;;;;;;0.00;0.00;;;8.50;99.90;;;;;;5131683;28;20075;-90
2022/01/27 11:50:37;;;;;;;0.10;0.10;;;8.50;99.90;;;;;;5131700;28;20039;-89
2022/01/27 11:53:11;;;;;;;0.00;0.00;;;8.50;99.90;;;;;;5131617;28;20043;-89
2022/01/27 11:55:44;;;;;;;0.00;0.00;;;8.50;99.90;;;;;;5131847;28;20036;-90
2022/01/27 11:58:15;;;;;;;0.10;0.10;;;8.50;99.90;;;;;;5131632;28;20062;-90
2022/01/27 12:01:00;;;;;;;0.00;0.00;;;8.50;99.90;;;;;;5131143;28;20039;-90
2022/01/27 12:03:27;;;;;;;0.00;0.00;;;8.50;99.90;;;;;;5130805;28;20134;-83
2022/01/27 12:06:17;;;;;;;0.08;0.08;;;8.50;99.90;;;;;;5111225;28;20119;-86
2022/01/27 12:08:45;;;;;;;0.20;0.20;;;8.50;99.90;;;;;;5113983;28;20043;-91
2022/01/27 12:11:42;;;;;;;0.22;0.22;;;8.50;99.90;;;;;;5110360;28;20089;-86
2022/01/27 12:14:10;;;;;;;0.00;0.00;;;8.50;99.90;;;;;;5124082;28;20085;-90
2022/01/27 12:16:51;;;;;;;0.00;0.00;;;8.50;99.90;;;;;;5148155;28;20048;-91
2022/01/27 12:19:18;;;;;;;0.00;0.00;;;8.50;99.90;;;;;;5122763;28;21397;-87
2022/01/27 12:21:56;;;;;;;0.03;0.03;;;8.50;99.90;;;;;;5085974;28;20034;-89
2022/01/27 12:24:30;;;;;;;0.00;0.00;;;8.50;99.90;;;;;;5119329;28;20036;-89
2022/01/27 12:27:05;;;;;;;0.00;0.00;;;8.50;99.90;;;;;;5109187;28;20088;-85
2022/01/27 12:29:32;;;;;;;0.00;0.00;;;8.50;99.90;;;;;;5130093;28;20519;-85
2022/01/27 12:32:04;;;;;;;0.13;0.13;;;8.50;99.90;;;;;;5122447;28;20039;-86
2022/01/27 12:34:33;;;;;;;0.00;0.00;;;8.50;99.90;;;;;;5111086;28;20040;-90
2022/01/27 12:37:07;;;;;;;0.00;0.00;;;8.50;99.90;;;;;;5104838;28;20032;-90
2022/01/27 12:39:40;;;;;;;0.00;0.00;;;8.50;99.90;;;;;;5119780;28;20091;-85
2022/01/27 12:42:14;;;;;;;0.00;0.00;;;8.50;99.90;;;;;;5124192;28;20062;-90
2022/01/27 12:44:54;;;;;;;0.00;0.00;;;8.50;99.90;;;;;;5130208;28;20043;-85
2022/01/27 12:47:23;;;;;;;0.00;0.00;;;8.50;99.90;;;;;;5129953;28;20042;-90
2022/01/27 12:50:01;;;;;;;0.00;0.00;;;8.50;99.90;;;;;;5124532;28;20043;-90
2022/01/27 12:52:31;;;;;;;0.00;0.00;;;8.50;99.90;;;;;;5120134;28;20040;-86
2022/01/27 12:54:58;;;;;;;0.00;0.00;;;8.50;99.90;;;;;;5130811;28;20114;-90
2022/01/27 12:57:30;;;;;;;0.03;0.03;;;8.50;99.90;;;;;;5109698;28;20123;-90
2022/01/27 13:00:01;;;;;;;0.00;0.00;;;8.50;99.90;;;;;;5100750;28;20035;-90
2022/01/27 13:02:29;;;;;;;0.00;0.00;;;8.50;99.90;;;;;;5129768;28;20045;-86
2022/01/27 13:04:57;;;;;;;0.00;0.00;;;8.50;99.90;;;;;;5113163;28;20040;-91
2022/01/27 13:07:26;;;;;;;0.00;0.00;;;8.60;99.90;;;;;;5122583;28;20040;-85
2022/01/27 13:09:54;;;;;;;0.10;0.10;;;8.50;99.90;;;;;;5131246;28;20031;-89
2022/01/27 13:12:27;;;;;;;0.00;0.00;;;8.50;99.90;;;;;;5112802;28;20040;-89
2022/01/27 13:15:11;;;;;;;0.20;0.15;;;8.50;99.90;;;;;;5104699;28;20110;-86
2022/01/27 13:17:47;;;;;;;0.00;0.00;;;8.50;99.90;;;;;;5119124;28;20032;-85
2022/01/27 13:20:28;;;;;;;0.05;0.05;;;8.50;99.90;;;;;;5134511;28;20043;-90
2022/01/27 13:23:17;;;;;;;0.00;0.00;;;8.50;99.90;;;;;;5126458;28;20056;-86
2022/01/27 13:25:54;;;;;;;0.00;0.00;;;8.50;99.90;;;;;;5112501;28;20040;-85
2022/01/27 13:28:27;;;;;;;0.00;0.00;;;8.50;99.90;;;;;;5126541;28;20448;-90
2022/01/27 13:31:07;;;;;;;6.13;0.68;;;8.00;99.90;;;;;;5133137;28;20047;-90
2022/01/27 13:33:42;;;;;;;0.10;0.10;;;8.50;99.90;;;;;;5134690;28;20047;-85
2022/01/27 13:36:17;;;;;;;0.00;0.00;;;8.50;99.90;;;;;;5121015;28;20036;-85
2022/01/27 13:39:24;;;;;;;0.00;0.00;;;8.50;99.90;;;;;;5097183;28;20047;-87
2022/01/27 13:41:50;;;;;;;0.00;0.00;;;8.50;99.90;;;;;;5113291;28;20075;-89
2022/01/27 13:44:25;;;;;;;0.00;0.00;;;8.60;99.90;;;;;;5098043;28;20047;-85
2022/01/27 13:47:02;;;;;;;0.00;0.00;;;8.60;99.90;;;;;;5127254;28;20467;-85
2022/01/27 13:49:33;;;;;;;0.03;0.03;;;8.60;99.90;;;;;;5130611;28;20045;-85
2022/01/27 13:52:13;;;;;;;0.00;0.00;;;8.60;99.90;;;;;;5124340;28;20074;-90
2022/01/27 13:54:48;;;;;;;0.10;0.10;;;8.50;99.90;;;;;;5113424;28;20036;-85
2022/01/27 13:57:21;;;;;;;0.00;0.00;;;8.50;99.90;;;;;;5096651;28;20039;-85
2022/01/27 14:00:02;;;;;;;0.10;0.10;;;8.40;99.90;;;;;;5113386;28;20036;-85
2022/01/27 14:02:43;;;;;;;0.00;0.00;;;8.40;99.90;;;;;;5113498;28;20040;-85
2022/01/27 14:05:15;;;;;;;0.00;0.00;;;8.50;99.90;;;;;;5113732;28;20036;-89
2022/01/27 14:07:55;;;;;;;0.10;0.10;;;8.40;99.90;;;;;;5113917;28;20040;-89
2022/01/27 14:10:25;;;;;;;0.00;0.00;;;8.40;99.90;;;;;;5114602;28;20815;-87